sensor_id;sensor_type;location;lat;lon;timestamp;pressure;altitude;pressure_sealevel;temperature;humidity
63009;BME280;49099;28.428;-16.488;2023-03-11T00:00:41;99066.16;;;19.72;67.80
63009;BME280;49099;28.428;-16.488;2023-03-11T00:03:14;99062.47;;;19.68;67.89
63009;BME280;49099;28.428;-16.488;2023-03-11T00:05:44;99055.50;;;19.67;67.95
63009;BME280;49099;28.428;-16.488;2023-03-11T00:08:17;99060.09;;;19.67;68.23
63009;BME280;49099;28.428;-16.488;2023-03-11T00:10:46;99049.38;;;19.75;67.54
63009;BME280;49099;28.428;-16.488;2023-03-11T00:13:15;99045.09;;;19.74;67.32
63009;BME280;49099;28.428;-16.488;2023-03-11T00:15:45;99048.09;;;19.73;67.07
63009;BME280;49099;28.428;-16.488;2023-03-11T00:18:12;99046.84;;;19.70;67.07
63009;BME280;49099;28.428;-16.488;2023-03-11T00:20:42;99046.97;;;19.65;67.12
63009;BME280;49099;28.428;-16.488;2023-03-11T00:23:11;99039.00;;;19.60;67.12
63009;BME280;49099;28.428;-16.488;2023-03-11T00:25:41;99044.22;;;19.57;66.89
63009;BME280;49099;28.428;-16.488;2023-03-11T00:28:08;99050.81;;;19.51;66.79
63009;BME280;49099;28.428;-16.488;2023-03-11T00:30:40;99060.00;;;19.49;66.79
63009;BME280;49099;28.428;-16.488;2023-03-11T00:33:08;99060.63;;;19.46;66.13
63009;BME280;49099;28.428;-16.488;2023-03-11T00:35:35;99063.78;;;19.48;65.83
63009;BME280;49099;28.428;-16.488;2023-03-11T00:38:05;99067.91;;;19.46;66.63
63009;BME280;49099;28.428;-16.488;2023-03-11T00:40:34;99064.69;;;19.44;67.13
63009;BME280;49099;28.428;-16.488;2023-03-11T00:43:02;99063.91;;;19.43;67.06
63009;BME280;49099;28.428;-16.488;2023-03-11T00:45:30;99058.03;;;19.41;67.12
63009;BME280;49099;28.428;-16.488;2023-03-11T00:47:58;99060.75;;;19.41;66.79
63009;BME280;49099;28.428;-16.488;2023-03-11T00:50:29;99059.75;;;19.37;66.54
63009;BME280;49099;28.428;-16.488;2023-03-11T00:52:56;99052.31;;;19.34;66.46
63009;BME280;49099;28.428;-16.488;2023-03-11T00:55:26;99053.09;;;19.35;66.65
63009;BME280;49099;28.428;-16.488;2023-03-11T00:58:02;99063.25;;;19.38;66.89
63009;BME280;49099;28.428;-16.488;2023-03-11T01:00:30;99055.47;;;19.36;66.76
63009;BME280;49099;28.428;-16.488;2023-03-11T01:02:58;99057.06;;;19.37;66.43
63009;BME280;49099;28.428;-16.488;2023-03-11T01:05:28;99055.97;;;19.38;65.92
63009;BME280;49099;28.428;-16.488;2023-03-11T01:07:56;99052.84;;;19.45;66.08
63009;BME280;49099;28.428;-16.488;2023-03-11T01:10:23;99052.03;;;19.44;65.76
63009;BME280;49099;28.428;-16.488;2023-03-11T01:12:50;99045.88;;;19.44;65.67
63009;BME280;49099;28.428;-16.488;2023-03-11T01:15:21;99047.97;;;19.47;65.77
63009;BME280;49099;28.428;-16.488;2023-03-11T01:17:48;99046.66;;;19.44;65.56
63009;BME280;49099;28.428;-16.488;2023-03-11T01:20:15;99041.28;;;19.44;66.09
63009;BME280;49099;28.428;-16.488;2023-03-11T01:22:43;99031.31;;;19.45;66.87
63009;BME280;49099;28.428;-16.488;2023-03-11T01:25:15;99032.28;;;19.49;66.92
63009;BME280;49099;28.428;-16.488;2023-03-11T01:27:43;99028.63;;;19.45;66.27
63009;BME280;49099;28.428;-16.488;2023-03-11T01:30:14;99024.66;;;19.42;66.29
63009;BME280;49099;28.428;-16.488;2023-03-11T01:32:41;99024.63;;;19.34;65.96
63009;BME280;49099;28.428;-16.488;2023-03-11T01:35:11;99019.97;;;19.26;66.09
63009;BME280;49099;28.428;-16.488;2023-03-11T01:37:39;99017.91;;;19.23;66.23
63009;BME280;49099;28.428;-16.488;2023-03-11T01:40:10;99017.09;;;19.22;66.77
63009;BME280;49099;28.428;-16.488;2023-03-11T01:42:38;99016.31;;;19.21;66.59
63009;BME280;49099;28.428;-16.488;2023-03-11T01:48:06;99007.41;;;19.12;66.59
63009;BME280;49099;28.428;-16.488;2023-03-11T01:50:37;99013.88;;;19.11;66.48
63009;BME280;49099;28.428;-16.488;2023-03-11T01:53:06;99007.81;;;19.06;66.95
63009;BME280;49099;28.428;-16.488;2023-03-11T01:55:34;99014.81;;;19.07;67.35
63009;BME280;49099;28.428;-16.488;2023-03-11T01:58:06;99010.81;;;19.04;67.18
63009;BME280;49099;28.428;-16.488;2023-03-11T02:00:35;99017.63;;;19.02;67.55
63009;BME280;49099;28.428;-16.488;2023-03-11T02:03:10;99014.44;;;19.00;67.82
63009;BME280;49099;28.428;-16.488;2023-03-11T02:05:40;99015.34;;;18.95;68.05
63009;BME280;49099;28.428;-16.488;2023-03-11T02:08:08;99025.63;;;18.93;68.20
63009;BME280;49099;28.428;-16.488;2023-03-11T02:10:38;99022.16;;;18.92;68.29
63009;BME280;49099;28.428;-16.488;2023-03-11T02:13:07;99017.69;;;18.88;67.84
63009;BME280;49099;28.428;-16.488;2023-03-11T02:15:36;99024.16;;;18.87;68.18
63009;BME280;49099;28.428;-16.488;2023-03-11T02:18:06;99011.81;;;18.86;68.14
63009;BME280;49099;28.428;-16.488;2023-03-11T02:23:17;99010.22;;;18.85;68.34
63009;BME280;49099;28.428;-16.488;2023-03-11T02:26:29;99009.56;;;18.79;67.83
63009;BME280;49099;28.428;-16.488;2023-03-11T02:28:37;98997.28;;;18.87;67.65
63009;BME280;49099;28.428;-16.488;2023-03-11T02:31:06;99000.97;;;18.91;66.97
63009;BME280;49099;28.428;-16.488;2023-03-11T02:33:35;98996.22;;;18.97;66.63
63009;BME280;49099;28.428;-16.488;2023-03-11T02:36:03;98992.63;;;19.01;66.75
63009;BME280;49099;28.428;-16.488;2023-03-11T02:38:30;98986.16;;;19.02;66.81
63009;BME280;49099;28.428;-16.488;2023-03-11T02:41:00;98985.16;;;18.98;67.59
63009;BME280;49099;28.428;-16.488;2023-03-11T02:43:33;98981.25;;;19.04;67.32
63009;BME280;49099;28.428;-16.488;2023-03-11T02:46:05;98979.56;;;19.08;67.42
63009;BME280;49099;28.428;-16.488;2023-03-11T02:48:33;98972.94;;;19.14;67.25
63009;BME280;49099;28.428;-16.488;2023-03-11T02:51:01;98973.28;;;19.21;67.09
63009;BME280;49099;28.428;-16.488;2023-03-11T02:53:32;98975.72;;;19.32;66.85
63009;BME280;49099;28.428;-16.488;2023-03-11T02:56:01;98967.91;;;19.21;67.33
63009;BME280;49099;28.428;-16.488;2023-03-11T02:58:28;98971.66;;;19.12;68.11
63009;BME280;49099;28.428;-16.488;2023-03-11T03:00:55;98967.22;;;19.07;67.92
63009;BME280;49099;28.428;-16.488;2023-03-11T03:03:22;98955.91;;;18.97;67.52
63009;BME280;49099;28.428;-16.488;2023-03-11T03:05:49;98970.97;;;19.06;67.11
63009;BME280;49099;28.428;-16.488;2023-03-11T03:08:16;98960.59;;;19.13;67.16
63009;BME280;49099;28.428;-16.488;2023-03-11T03:10:43;98968.66;;;19.13;66.06
63009;BME280;49099;28.428;-16.488;2023-03-11T03:13:11;98964.56;;;19.16;66.03
63009;BME280;49099;28.428;-16.488;2023-03-11T03:15:38;98968.53;;;19.18;66.19
63009;BME280;49099;28.428;-16.488;2023-03-11T03:18:05;98969.84;;;19.30;66.19
63009;BME280;49099;28.428;-16.488;2023-03-11T03:20:32;98966.88;;;19.31;66.09
63009;BME280;49099;28.428;-16.488;2023-03-11T03:23:00;98971.09;;;19.24;66.33
63009;BME280;49099;28.428;-16.488;2023-03-11T03:25:27;98962.31;;;19.09;67.06
63009;BME280;49099;28.428;-16.488;2023-03-11T03:27:54;98960.97;;;18.98;67.81
63009;BME280;49099;28.428;-16.488;2023-03-11T03:30:21;98966.81;;;18.91;67.47
63009;BME280;49099;28.428;-16.488;2023-03-11T03:32:48;98962.97;;;18.84;67.47
63009;BME280;49099;28.428;-16.488;2023-03-11T03:35:15;98964.34;;;18.81;67.81
63009;BME280;49099;28.428;-16.488;2023-03-11T03:37:43;98959.59;;;18.78;68.25
63009;BME280;49099;28.428;-16.488;2023-03-11T03:40:10;98958.44;;;18.71;67.60
63009;BME280;49099;28.428;-16.488;2023-03-11T03:42:37;98962.81;;;18.67;67.42
63009;BME280;49099;28.428;-16.488;2023-03-11T03:45:06;98961.03;;;18.62;67.17
63009;BME280;49099;28.428;-16.488;2023-03-11T03:47:34;98959.88;;;18.54;67.32
63009;BME280;49099;28.428;-16.488;2023-03-11T03:50:03;98968.25;;;18.53;67.47
63009;BME280;49099;28.428;-16.488;2023-03-11T03:52:30;98955.09;;;18.51;67.37
63009;BME280;49099;28.428;-16.488;2023-03-11T03:54:57;98961.56;;;18.50;67.92
63009;BME280;49099;28.428;-16.488;2023-03-11T03:57:24;98955.72;;;18.48;68.30
63009;BME280;49099;28.428;-16.488;2023-03-11T03:59:52;98956.81;;;18.47;68.21
63009;BME280;49099;28.428;-16.488;2023-03-11T04:02:19;98953.13;;;18.43;68.79
63009;BME280;49099;28.428;-16.488;2023-03-11T04:04:46;98957.72;;;18.43;68.47
63009;BME280;49099;28.428;-16.488;2023-03-11T04:07:14;98955.34;;;18.41;68.50
63009;BME280;49099;28.428;-16.488;2023-03-11T04:09:42;98956.31;;;18.45;68.42
63009;BME280;49099;28.428;-16.488;2023-03-11T04:12:13;98952.34;;;18.43;67.33
63009;BME280;49099;28.428;-16.488;2023-03-11T04:14:41;98952.47;;;18.37;66.54
63009;BME280;49099;28.428;-16.488;2023-03-11T04:17:12;98950.06;;;18.36;66.42
63009;BME280;49099;28.428;-16.488;2023-03-11T04:19:39;98955.16;;;18.37;67.15
63009;BME280;49099;28.428;-16.488;2023-03-11T04:22:07;98951.69;;;18.37;65.99
63009;BME280;49099;28.428;-16.488;2023-03-11T04:24:35;98939.84;;;18.38;66.00
63009;BME280;49099;28.428;-16.488;2023-03-11T04:27:02;98941.03;;;18.32;62.59
63009;BME280;49099;28.428;-16.488;2023-03-11T04:29:29;98945.41;;;18.28;63.39
63009;BME280;49099;28.428;-16.488;2023-03-11T04:31:56;98946.66;;;18.22;64.77
63009;BME280;49099;28.428;-16.488;2023-03-11T04:34:23;98941.75;;;18.24;66.17
63009;BME280;49099;28.428;-16.488;2023-03-11T04:36:53;98939.66;;;18.21;66.00
63009;BME280;49099;28.428;-16.488;2023-03-11T04:39:21;98945.03;;;18.21;65.55
63009;BME280;49099;28.428;-16.488;2023-03-11T04:41:48;98944.44;;;18.24;65.57
63009;BME280;49099;28.428;-16.488;2023-03-11T04:44:15;98951.88;;;18.27;66.14
63009;BME280;49099;28.428;-16.488;2023-03-11T04:46:42;98942.88;;;18.23;66.56
63009;BME280;49099;28.428;-16.488;2023-03-11T04:49:09;98936.69;;;18.22;66.64
63009;BME280;49099;28.428;-16.488;2023-03-11T04:51:36;98931.75;;;18.16;67.17
63009;BME280;49099;28.428;-16.488;2023-03-11T04:54:03;98931.25;;;18.14;66.79
63009;BME280;49099;28.428;-16.488;2023-03-11T04:56:31;98932.16;;;18.09;66.22
63009;BME280;49099;28.428;-16.488;2023-03-11T04:58:58;98929.28;;;18.05;65.15
63009;BME280;49099;28.428;-16.488;2023-03-11T05:01:25;98933.97;;;18.00;62.69
63009;BME280;49099;28.428;-16.488;2023-03-11T05:03:53;98931.22;;;17.91;62.69
63009;BME280;49099;28.428;-16.488;2023-03-11T05:06:20;98931.22;;;17.91;63.61
63009;BME280;49099;28.428;-16.488;2023-03-11T05:08:47;98932.00;;;17.92;64.27
63009;BME280;49099;28.428;-16.488;2023-03-11T05:11:14;98928.00;;;17.89;64.62
63009;BME280;49099;28.428;-16.488;2023-03-11T05:13:41;98931.22;;;17.91;62.17
63009;BME280;49099;28.428;-16.488;2023-03-11T05:16:08;98928.53;;;17.91;63.15
63009;BME280;49099;28.428;-16.488;2023-03-11T05:18:35;98931.22;;;17.91;61.51
63009;BME280;49099;28.428;-16.488;2023-03-11T05:21:02;98932.63;;;17.75;64.50
63009;BME280;49099;28.428;-16.488;2023-03-11T05:23:30;98926.84;;;17.68;65.91
63009;BME280;49099;28.428;-16.488;2023-03-11T05:25:57;98927.41;;;17.65;67.10
63009;BME280;49099;28.428;-16.488;2023-03-11T05:28:24;98930.09;;;17.65;66.73
63009;BME280;49099;28.428;-16.488;2023-03-11T05:30:51;98926.13;;;17.62;66.66
63009;BME280;49099;28.428;-16.488;2023-03-11T05:33:19;98922.97;;;17.60;67.49
63009;BME280;49099;28.428;-16.488;2023-03-11T05:35:46;98925.34;;;17.62;67.96
63009;BME280;49099;28.428;-16.488;2023-03-11T05:38:13;98927.22;;;17.61;68.58
63009;BME280;49099;28.428;-16.488;2023-03-11T05:40:40;98918.88;;;17.63;68.68
63009;BME280;49099;28.428;-16.488;2023-03-11T05:43:07;98936.56;;;17.64;69.67
63009;BME280;49099;28.428;-16.488;2023-03-11T05:45:34;98925.81;;;17.64;70.15
63009;BME280;49099;28.428;-16.488;2023-03-11T05:48:02;98915.19;;;17.59;69.99
63009;BME280;49099;28.428;-16.488;2023-03-11T05:50:29;98925.34;;;17.62;68.38
63009;BME280;49099;28.428;-16.488;2023-03-11T05:52:56;98933.69;;;17.60;67.77
63009;BME280;49099;28.428;-16.488;2023-03-11T05:55:23;98933.88;;;17.64;67.92
63009;BME280;49099;28.428;-16.488;2023-03-11T05:57:51;98939.25;;;17.64;67.69
63009;BME280;49099;28.428;-16.488;2023-03-11T06:00:18;98935.59;;;17.60;67.99
63009;BME280;49099;28.428;-16.488;2023-03-11T06:02:46;98938.66;;;17.67;66.98
63009;BME280;49099;28.428;-16.488;2023-03-11T06:05:13;98938.34;;;17.68;66.47
63009;BME280;49099;28.428;-16.488;2023-03-11T06:07:40;98941.34;;;17.67;66.39
63009;BME280;49099;28.428;-16.488;2023-03-11T06:10:09;98937.16;;;17.61;66.99
63009;BME280;49099;28.428;-16.488;2023-03-11T06:12:36;98934.97;;;17.63;67.06
63009;BME280;49099;28.428;-16.488;2023-03-11T06:15:07;98939.16;;;17.69;66.90
63009;BME280;49099;28.428;-16.488;2023-03-11T06:17:34;98941.81;;;17.69;67.25
63009;BME280;49099;28.428;-16.488;2023-03-11T06:20:02;98943.72;;;17.68;67.23
63009;BME280;49099;28.428;-16.488;2023-03-11T06:22:30;98943.50;;;17.65;67.55
63009;BME280;49099;28.428;-16.488;2023-03-11T06:24:57;98946.72;;;17.67;67.52
63009;BME280;49099;28.428;-16.488;2023-03-11T06:27:25;98947.72;;;17.71;67.57
63009;BME280;49099;28.428;-16.488;2023-03-11T06:29:52;98952.88;;;17.67;67.58
63009;BME280;49099;28.428;-16.488;2023-03-11T06:32:20;98948.56;;;17.66;66.34
63009;BME280;49099;28.428;-16.488;2023-03-11T06:34:51;98958.66;;;17.74;65.84
63009;BME280;49099;28.428;-16.488;2023-03-11T06:37:18;98959.25;;;17.71;65.75
63009;BME280;49099;28.428;-16.488;2023-03-11T06:39:46;98961.81;;;17.76;66.25
63009;BME280;49099;28.428;-16.488;2023-03-11T06:42:17;98963.41;;;17.77;66.78
63009;BME280;49099;28.428;-16.488;2023-03-11T06:44:46;98960.44;;;17.79;66.13
63009;BME280;49099;28.428;-16.488;2023-03-11T06:47:13;98967.38;;;17.80;65.94
63009;BME280;49099;28.428;-16.488;2023-03-11T06:49:41;98963.00;;;17.84;65.32
63009;BME280;49099;28.428;-16.488;2023-03-11T06:52:08;98960.81;;;17.86;65.18
63009;BME280;49099;28.428;-16.488;2023-03-11T06:54:35;98963.19;;;17.88;64.66
63009;BME280;49099;28.428;-16.488;2023-03-11T06:57:06;98959.22;;;17.85;63.30
63009;BME280;49099;28.428;-16.488;2023-03-11T06:59:34;98956.84;;;17.84;63.53
63009;BME280;49099;28.428;-16.488;2023-03-11T07:02:05;98956.47;;;17.90;62.27
63009;BME280;49099;28.428;-16.488;2023-03-11T07:04:32;98952.78;;;17.86;62.01
63009;BME280;49099;28.428;-16.488;2023-03-11T07:06:59;98963.81;;;17.85;61.56
63009;BME280;49099;28.428;-16.488;2023-03-11T07:09:26;98954.56;;;17.77;62.82
63009;BME280;49099;28.428;-16.488;2023-03-11T07:11:55;98947.72;;;17.71;64.19
63009;BME280;49099;28.428;-16.488;2023-03-11T07:14:22;98947.09;;;17.74;64.35
63009;BME280;49099;28.428;-16.488;2023-03-11T07:16:49;98946.44;;;17.82;64.26
63009;BME280;49099;28.428;-16.488;2023-03-11T07:19:16;98947.09;;;17.88;61.42
63009;BME280;49099;28.428;-16.488;2023-03-11T07:21:43;98953.06;;;17.85;62.61
63009;BME280;49099;28.428;-16.488;2023-03-11T07:24:11;98955.16;;;17.74;62.63
63009;BME280;49099;28.428;-16.488;2023-03-11T07:26:40;98952.06;;;17.67;63.43
63009;BME280;49099;28.428;-16.488;2023-03-11T07:29:10;98952.06;;;17.67;64.44
63009;BME280;49099;28.428;-16.488;2023-03-11T07:31:37;98942.66;;;17.83;64.00
63009;BME280;49099;28.428;-16.488;2023-03-11T07:34:05;98942.72;;;17.92;63.81
63009;BME280;49099;28.428;-16.488;2023-03-11T07:36:39;98945.88;;;18.07;63.45
63009;BME280;49099;28.428;-16.488;2023-03-11T07:39:07;98941.88;;;18.19;62.77
63009;BME280;49099;28.428;-16.488;2023-03-11T07:41:36;98943.72;;;18.32;62.96
63009;BME280;49099;28.428;-16.488;2023-03-11T07:44:03;98937.63;;;18.40;62.63
63009;BME280;49099;28.428;-16.488;2023-03-11T07:46:31;98936.00;;;18.53;62.66
63009;BME280;49099;28.428;-16.488;2023-03-11T07:49:00;98940.34;;;18.62;62.90
63009;BME280;49099;28.428;-16.488;2023-03-11T07:51:31;98940.09;;;18.73;62.47
63009;BME280;49099;28.428;-16.488;2023-03-11T07:53:59;98941.56;;;18.79;62.08
63009;BME280;49099;28.428;-16.488;2023-03-11T07:56:32;98941.25;;;18.80;62.18
63009;BME280;49099;28.428;-16.488;2023-03-11T07:59:01;98941.16;;;18.85;62.66
63009;BME280;49099;28.428;-16.488;2023-03-11T08:01:30;98936.88;;;18.84;62.46
63009;BME280;49099;28.428;-16.488;2023-03-11T08:04:04;98946.38;;;18.90;62.54
63009;BME280;49099;28.428;-16.488;2023-03-11T08:06:33;98954.94;;;18.92;62.78
63009;BME280;49099;28.428;-16.488;2023-03-11T08:09:02;98946.47;;;18.99;62.83
63009;BME280;49099;28.428;-16.488;2023-03-11T08:11:31;98964.66;;;19.02;63.27
63009;BME280;49099;28.428;-16.488;2023-03-11T08:13:58;98957.06;;;19.04;62.91
63009;BME280;49099;28.428;-16.488;2023-03-11T08:16:26;98963.41;;;19.08;63.01
63009;BME280;49099;28.428;-16.488;2023-03-11T08:18:53;98970.53;;;19.13;63.01
63009;BME280;49099;28.428;-16.488;2023-03-11T08:21:22;98967.75;;;19.18;63.00
63009;BME280;49099;28.428;-16.488;2023-03-11T08:23:51;98971.56;;;19.26;63.24
63009;BME280;49099;28.428;-16.488;2023-03-11T08:26:20;98977.63;;;19.31;62.74
63009;BME280;49099;28.428;-16.488;2023-03-11T08:28:48;98978.09;;;19.33;62.79
63009;BME280;49099;28.428;-16.488;2023-03-11T08:31:21;98974.25;;;19.26;62.95
63009;BME280;49099;28.428;-16.488;2023-03-11T08:33:51;98970.47;;;19.27;63.22
63009;BME280;49099;28.428;-16.488;2023-03-11T08:36:19;98974.13;;;19.31;62.73
63009;BME280;49099;28.428;-16.488;2023-03-11T08:38:47;98974.94;;;19.31;62.50
63009;BME280;49099;28.428;-16.488;2023-03-11T08:41:14;98975.53;;;19.28;61.83
63009;BME280;49099;28.428;-16.488;2023-03-11T08:43:42;98981.84;;;19.24;61.44
63009;BME280;49099;28.428;-16.488;2023-03-11T08:46:32;98981.66;;;19.20;60.69
63009;BME280;49099;28.428;-16.488;2023-03-11T08:49:00;98977.88;;;19.21;60.78
63009;BME280;49099;28.428;-16.488;2023-03-11T08:51:29;98975.31;;;19.16;60.00
63009;BME280;49099;28.428;-16.488;2023-03-11T08:53:57;98981.97;;;19.18;59.85
63009;BME280;49099;28.428;-16.488;2023-03-11T08:56:25;98975.94;;;19.13;61.66
63009;BME280;49099;28.428;-16.488;2023-03-11T08:58:53;98984.13;;;19.08;62.74
63009;BME280;49099;28.428;-16.488;2023-03-11T09:01:20;98982.84;;;19.05;63.19
63009;BME280;49099;28.428;-16.488;2023-03-11T09:03:48;98983.59;;;18.97;63.11
63009;BME280;49099;28.428;-16.488;2023-03-11T09:06:16;98981.41;;;18.99;62.77
63009;BME280;49099;28.428;-16.488;2023-03-11T09:08:44;98978.16;;;18.88;59.00
63009;BME280;49099;28.428;-16.488;2023-03-11T09:11:13;98980.16;;;18.83;59.45
63009;BME280;49099;28.428;-16.488;2023-03-11T09:13:41;98978.72;;;18.77;60.25
63009;BME280;49099;28.428;-16.488;2023-03-11T09:16:12;98977.31;;;18.79;60.25
63009;BME280;49099;28.428;-16.488;2023-03-11T09:18:40;98970.16;;;18.75;62.04
63009;BME280;49099;28.428;-16.488;2023-03-11T09:21:08;98967.19;;;18.62;63.83
63009;BME280;49099;28.428;-16.488;2023-03-11T09:23:35;98964.03;;;18.60;64.58
63009;BME280;49099;28.428;-16.488;2023-03-11T09:26:02;98969.50;;;18.55;65.34
63009;BME280;49099;28.428;-16.488;2023-03-11T09:28:29;98975.78;;;18.51;66.21
63009;BME280;49099;28.428;-16.488;2023-03-11T09:30:57;98970.41;;;18.51;67.38
63009;BME280;49099;28.428;-16.488;2023-03-11T09:33:24;98971.88;;;18.57;67.84
63009;BME280;49099;28.428;-16.488;2023-03-11T09:35:51;98977.56;;;18.55;68.40
63009;BME280;49099;28.428;-16.488;2023-03-11T09:38:19;98983.91;;;18.59;68.84
63009;BME280;49099;28.428;-16.488;2023-03-11T09:43:27;98991.84;;;18.64;71.32
63009;BME280;49099;28.428;-16.488;2023-03-11T09:51:57;99003.72;;;18.63;73.13
63009;BME280;49099;28.428;-16.488;2023-03-11T09:54:28;98996.84;;;18.57;72.99
63009;BME280;49099;28.428;-16.488;2023-03-11T09:57:01;98997.84;;;18.61;73.36
63009;BME280;49099;28.428;-16.488;2023-03-11T09:59:30;98994.53;;;18.64;73.35
63009;BME280;49099;28.428;-16.488;2023-03-11T10:01:59;98994.16;;;18.71;73.08
63009;BME280;49099;28.428;-16.488;2023-03-11T10:04:33;99003.88;;;18.81;72.90
63009;BME280;49099;28.428;-16.488;2023-03-11T10:07:09;99003.88;;;18.81;73.49
63009;BME280;49099;28.428;-16.488;2023-03-11T10:09:53;99004.72;;;18.90;73.14
63009;BME280;49099;28.428;-16.488;2023-03-11T10:13:02;99005.09;;;18.97;72.66
63009;BME280;49099;28.428;-16.488;2023-03-11T10:15:54;98994.34;;;18.97;72.08
63009;BME280;49099;28.428;-16.488;2023-03-11T10:26:51;98992.66;;;19.32;71.84
63009;BME280;49099;28.428;-16.488;2023-03-11T10:32:47;98991.94;;;19.49;70.65
63009;BME280;49099;28.428;-16.488;2023-03-11T10:35:20;98994.97;;;19.56;70.34
63009;BME280;49099;28.428;-16.488;2023-03-11T10:37:59;98990.19;;;19.53;70.33
63009;BME280;49099;28.428;-16.488;2023-03-11T10:40:39;98997.06;;;19.59;70.31
63009;BME280;49099;28.428;-16.488;2023-03-11T10:43:14;98985.72;;;19.71;69.94
63009;BME280;49099;28.428;-16.488;2023-03-11T10:45:43;98987.47;;;19.75;69.60
63009;BME280;49099;28.428;-16.488;2023-03-11T10:48:16;98995.53;;;19.75;69.52
63009;BME280;49099;28.428;-16.488;2023-03-11T10:51:03;98997.63;;;19.79;69.55
63009;BME280;49099;28.428;-16.488;2023-03-11T10:53:48;98997.19;;;19.85;69.35
63009;BME280;49099;28.428;-16.488;2023-03-11T10:56:39;98989.72;;;19.91;69.39
63009;BME280;49099;28.428;-16.488;2023-03-11T10:59:29;98984.69;;;19.98;69.30
63009;BME280;49099;28.428;-16.488;2023-03-11T11:02:07;98982.97;;;20.02;69.26
63009;BME280;49099;28.428;-16.488;2023-03-11T11:04:45;98974.72;;;20.07;69.22
63009;BME280;49099;28.428;-16.488;2023-03-11T11:07:36;98970.44;;;20.06;69.50
63009;BME280;49099;28.428;-16.488;2023-03-11T11:10:33;98963.16;;;20.15;68.75
63009;BME280;49099;28.428;-16.488;2023-03-11T11:13:14;98968.88;;;20.22;68.66
63009;BME280;49099;28.428;-16.488;2023-03-11T11:15:55;98967.63;;;20.28;68.62
63009;BME280;49099;28.428;-16.488;2023-03-11T11:21:05;98954.34;;;20.41;67.89
63009;BME280;49099;28.428;-16.488;2023-03-11T11:23:47;98944.19;;;20.46;67.46
63009;BME280;49099;28.428;-16.488;2023-03-11T11:26:22;98945.31;;;20.45;66.85
63009;BME280;49099;28.428;-16.488;2023-03-11T11:31:44;98936.44;;;20.45;67.56
63009;BME280;49099;28.428;-16.488;2023-03-11T11:34:30;98954.50;;;20.53;67.38
63009;BME280;49099;28.428;-16.488;2023-03-11T11:37:01;98945.81;;;20.56;66.99
63009;BME280;49099;28.428;-16.488;2023-03-11T11:39:46;98947.50;;;20.43;67.74
63009;BME280;49099;28.428;-16.488;2023-03-11T11:42:18;98949.25;;;20.30;68.47
63009;BME280;49099;28.428;-16.488;2023-03-11T11:44:50;98938.97;;;20.33;68.83
63009;BME280;49099;28.428;-16.488;2023-03-11T11:47:23;98936.25;;;20.33;68.56
63009;BME280;49099;28.428;-16.488;2023-03-11T11:49:55;98929.44;;;20.26;68.88
63009;BME280;49099;28.428;-16.488;2023-03-11T11:52:48;98927.69;;;20.22;68.58
63009;BME280;49099;28.428;-16.488;2023-03-11T11:55:22;98917.25;;;20.20;69.07
63009;BME280;49099;28.428;-16.488;2023-03-11T11:57:51;98918.19;;;20.24;69.10
63009;BME280;49099;28.428;-16.488;2023-03-11T12:00:21;98910.28;;;20.19;69.01
63009;BME280;49099;28.428;-16.488;2023-03-11T12:05:31;98906.13;;;20.13;69.39
63009;BME280;49099;28.428;-16.488;2023-03-11T12:11:03;98895.69;;;20.29;68.90
63009;BME280;49099;28.428;-16.488;2023-03-11T12:18:58;98883.50;;;20.49;68.63
63009;BME280;49099;28.428;-16.488;2023-03-11T12:27:19;98876.84;;;20.55;68.51
63009;BME280;49099;28.428;-16.488;2023-03-11T12:29:52;98874.94;;;20.55;68.48
63009;BME280;49099;28.428;-16.488;2023-03-11T12:32:40;98868.56;;;20.69;67.59
63009;BME280;49099;28.428;-16.488;2023-03-11T12:35:31;98868.84;;;20.76;66.77
63009;BME280;49099;28.428;-16.488;2023-03-11T12:38:19;98870.44;;;20.85;66.03
63009;BME280;49099;28.428;-16.488;2023-03-11T12:41:34;98861.03;;;20.92;65.98
63009;BME280;49099;28.428;-16.488;2023-03-11T12:46:03;98864.53;;;20.92;66.28
63009;BME280;49099;28.428;-16.488;2023-03-11T12:51:03;98858.75;;;21.11;65.95
63009;BME280;49099;28.428;-16.488;2023-03-11T13:02:23;98840.94;;;21.27;65.89
63009;BME280;49099;28.428;-16.488;2023-03-11T13:07:47;98839.91;;;21.40;65.88
63009;BME280;49099;28.428;-16.488;2023-03-11T13:15:56;98822.28;;;21.43;65.36
63009;BME280;49099;28.428;-16.488;2023-03-11T13:18:25;98817.94;;;21.51;65.04
63009;BME280;49099;28.428;-16.488;2023-03-11T13:20:58;98819.63;;;21.55;64.97
63009;BME280;49099;28.428;-16.488;2023-03-11T13:23:34;98823.22;;;21.68;64.65
63009;BME280;49099;28.428;-16.488;2023-03-11T13:26:33;98818.28;;;21.70;64.05
63009;BME280;49099;28.428;-16.488;2023-03-11T13:31:51;98819.91;;;21.62;64.51
63009;BME280;49099;28.428;-16.488;2023-03-11T13:40:12;98808.84;;;21.76;64.33
63009;BME280;49099;28.428;-16.488;2023-03-11T13:45:32;98807.94;;;21.93;63.47
63009;BME280;49099;28.428;-16.488;2023-03-11T13:50:55;98791.88;;;21.96;62.21
63009;BME280;49099;28.428;-16.488;2023-03-11T13:53:27;98792.41;;;22.11;62.40
63009;BME280;49099;28.428;-16.488;2023-03-11T13:55:55;98786.31;;;22.14;62.32
63009;BME280;49099;28.428;-16.488;2023-03-11T13:58:25;98772.88;;;22.26;62.70
63009;BME280;49099;28.428;-16.488;2023-03-11T14:03:22;98770.72;;;22.32;61.53
63009;BME280;49099;28.428;-16.488;2023-03-11T14:05:58;98768.50;;;22.34;62.16
63009;BME280;49099;28.428;-16.488;2023-03-11T14:08:32;98766.00;;;22.29;62.61
63009;BME280;49099;28.428;-16.488;2023-03-11T14:13:45;98762.97;;;22.30;63.02
63009;BME280;49099;28.428;-16.488;2023-03-11T14:19:20;98764.19;;;22.20;63.83
63009;BME280;49099;28.428;-16.488;2023-03-11T14:21:49;98758.63;;;22.17;64.21
63009;BME280;49099;28.428;-16.488;2023-03-11T14:24:26;98751.00;;;22.19;63.73
63009;BME280;49099;28.428;-16.488;2023-03-11T14:26:57;98766.81;;;22.08;64.09
63009;BME280;49099;28.428;-16.488;2023-03-11T14:29:37;98759.81;;;22.07;64.42